Time;durP1;ratioP1;P1;durP2;ratioP2;P2;SDS_P1;SDS_P2;PMS_P1;PMS_P2;Temp;Humidity;BMP_temperature;BMP_pressure;BME280_temperature;BME280_humidity;BME280_pressure;Samples;Min_cycle;Max_cycle;Signal;HPM_P1;HPM_P2
2023/07/30 00:01:00;;;;;;;2.07;1.90;;;;;;;18.71;100.00;99525.66;5036731;28;20229;-67
2023/07/30 00:03:26;;;;;;;3.50;2.10;;;;;;;18.73;100.00;99517.69;5041988;28;20186;-63
2023/07/30 00:05:52;;;;;;;2.23;2.03;;;;;;;18.76;100.00;99526.00;5037979;28;20538;-65
2023/07/30 00:08:18;;;;;;;3.53;2.07;;;;;;;18.76;100.00;99525.22;5042305;28;20220;-69
2023/07/30 00:10:43;;;;;;;5.00;1.93;;;;;;;18.73;100.00;99520.28;5039549;28;20259;-69
2023/07/30 00:13:08;;;;;;;2.27;2.03;;;;;;;18.73;100.00;99522.88;5075445;28;20189;-68
2023/07/30 00:15:33;;;;;;;3.17;2.07;;;;;;;18.62;100.00;99519.56;5043882;28;20314;-69
2023/07/30 00:17:59;;;;;;;6.27;2.20;;;;;;;18.63;100.00;99523.81;5050798;28;20189;-69
2023/07/30 00:20:24;;;;;;;4.33;1.90;;;;;;;18.61;100.00;99528.34;5043286;28;20241;-69
2023/07/30 00:22:49;;;;;;;3.30;1.80;;;;;;;18.67;100.00;99522.53;5051206;28;20223;-69
2023/07/30 00:25:15;;;;;;;2.03;1.93;;;;;;;18.71;100.00;99525.66;5052937;28;20624;-70
2023/07/30 00:27:40;;;;;;;1.90;1.80;;;;;;;18.74;100.00;99527.13;5042463;28;20188;-70
2023/07/30 00:30:06;;;;;;;1.60;1.50;;;;;;;18.74;100.00;99533.16;5043345;28;20184;-69
2023/07/30 00:32:31;;;;;;;1.70;1.60;;;;;;;18.75;100.00;99526.97;5049126;28;20177;-69
2023/07/30 00:34:56;;;;;;;1.70;1.60;;;;;;;18.70;100.00;99529.22;5052532;28;20189;-69
2023/07/30 00:37:22;;;;;;;1.53;1.43;;;;;;;18.70;100.00;99526.63;5047671;28;20551;-69
2023/07/30 00:39:47;;;;;;;2.33;1.47;;;;;;;18.66;100.00;99528.69;5053082;28;20259;-69
2023/07/30 00:42:12;;;;;;;3.20;1.30;;;;;;;18.74;100.00;99532.34;5056820;28;20595;-69
2023/07/30 00:44:37;;;;;;;1.63;1.53;;;;;;;18.74;100.00;99540.97;5050835;28;20250;-69
2023/07/30 00:47:03;;;;;;;1.80;1.70;;;;;;;18.78;100.00;99542.31;5048772;28;20209;-69
2023/07/30 00:49:29;;;;;;;1.73;1.47;;;;;;;18.79;100.00;99533.53;5039383;28;20186;-69
2023/07/30 00:51:56;;;;;;;2.23;1.40;;;;;;;18.84;100.00;99538.28;5014494;28;20265;-69
2023/07/30 00:54:22;;;;;;;3.63;1.50;;;;;;;18.77;100.00;99540.69;5039602;28;20604;-69
2023/07/30 00:56:52;;;;;;;1.50;1.40;;;;;;;18.79;100.00;99535.31;5050124;28;20272;-69
2023/07/30 00:59:17;;;;;;;2.07;1.40;;;;;;;18.80;100.00;99542.97;5037603;28;20182;-69
2023/07/30 01:01:45;;;;;;;1.30;1.20;;;;;;;18.80;100.00;99542.97;5024778;28;20676;-69
2023/07/30 01:04:11;;;;;;;3.10;1.30;;;;;;;18.80;100.00;99549.97;5051461;28;20189;-69
2023/07/30 01:06:36;;;;;;;3.10;1.20;;;;;;;18.80;100.00;99545.56;5051282;28;20254;-70
2023/07/30 01:09:01;;;;;;;1.60;1.50;;;;;;;18.81;100.00;99551.63;5045801;28;20199;-69
2023/07/30 01:11:28;;;;;;;1.50;1.40;;;;;;;18.82;100.00;99555.88;5033718;28;20715;-69
2023/07/30 01:13:54;;;;;;;2.57;1.30;;;;;;;18.81;100.00;99559.44;5055432;28;20255;-69
2023/07/30 01:16:19;;;;;;;1.50;1.40;;;;;;;18.86;100.00;99549.38;5052502;28;20233;-69
2023/07/30 01:18:46;;;;;;;3.10;1.33;;;;;;;18.86;100.00;99560.63;5048736;28;20178;-69
2023/07/30 01:21:11;;;;;;;1.00;1.00;;;;;;;18.88;100.00;99555.28;5039316;28;20236;-69
2023/07/30 01:23:37;;;;;;;1.37;1.20;;;;;;;18.87;100.00;99559.66;5058342;28;20173;-68
2023/07/30 01:26:12;;;;;;;1.40;1.30;;;;;;;18.86;100.00;99555.41;5048206;28;20210;-69
2023/07/30 01:28:43;;;;;;;2.93;1.40;;;;;;;18.84;100.00;99562.56;5038686;28;20245;-69
2023/07/30 01:31:13;;;;;;;2.63;1.20;;;;;;;18.87;100.00;99567.47;5050394;28;20309;-69
2023/07/30 01:33:40;;;;;;;2.77;1.33;;;;;;;18.94;100.00;99577.31;5057874;28;20192;-69
2023/07/30 01:36:10;;;;;;;1.27;1.17;;;;;;;18.94;100.00;99575.53;5050382;28;20270;-69
2023/07/30 01:38:37;;;;;;;1.53;1.23;;;;;;;18.95;100.00;99584.16;5044247;28;20260;-69
2023/07/30 01:41:02;;;;;;;4.07;1.80;;;;;;;18.97;100.00;99584.84;5028463;28;20810;-69
2023/07/30 01:43:28;;;;;;;1.13;1.07;;;;;;;18.95;100.00;99585.00;5040881;28;20294;-69
2023/07/30 01:45:53;;;;;;;1.00;1.00;;;;;;;18.96;100.00;99584.00;5051088;28;20689;-69
2023/07/30 01:48:18;;;;;;;1.20;1.20;;;;;;;18.77;100.00;99586.78;5047852;28;20192;-68
2023/07/30 01:50:46;;;;;;;3.17;1.47;;;;;;;18.77;100.00;99586.78;5043131;28;20258;-68
2023/07/30 01:53:12;;;;;;;2.80;1.40;;;;;;;18.82;100.00;99590.56;5051430;28;20178;-68
2023/07/30 01:55:39;;;;;;;1.83;1.27;;;;;;;18.88;100.00;99589.94;5047260;28;21191;-68
2023/07/30 01:58:04;;;;;;;1.30;1.20;;;;;;;18.85;100.00;99592.03;5045907;28;20188;-68
2023/07/30 02:00:29;;;;;;;1.20;1.10;;;;;;;18.87;100.00;99590.09;5044984;28;20221;-68
2023/07/30 02:02:55;;;;;;;1.10;1.00;;;;;;;18.91;100.00;99596.69;5063018;28;20246;-68
2023/07/30 02:05:20;;;;;;;1.90;1.30;;;;;;;18.90;100.00;99600.22;5050722;28;20212;-68
2023/07/30 02:07:45;;;;;;;1.40;1.30;;;;;;;18.96;100.00;99604.06;5048027;28;20201;-69
2023/07/30 02:10:10;;;;;;;1.40;1.30;;;;;;;19.00;100.00;99600.16;5040712;28;20188;-69
2023/07/30 02:12:36;;;;;;;1.30;1.20;;;;;;;19.02;100.00;99604.25;5065140;28;20718;-69
2023/07/30 02:15:01;;;;;;;1.63;1.20;;;;;;;19.06;100.00;99599.56;5050581;28;20227;-68
2023/07/30 02:17:26;;;;;;;3.07;1.30;;;;;;;19.05;100.00;99604.94;5050091;28;20180;-68
2023/07/30 02:19:52;;;;;;;1.27;1.17;;;;;;;18.90;100.00;99605.44;5044702;28;20189;-69
2023/07/30 02:22:17;;;;;;;1.17;1.13;;;;;;;18.85;100.00;99608.50;5055907;28;20216;-69
2023/07/30 02:24:42;;;;;;;4.47;1.30;;;;;;;18.80;100.00;99607.31;5049201;28;20283;-69
2023/07/30 02:27:07;;;;;;;2.53;1.50;;;;;;;18.57;100.00;99610.34;5051330;28;20225;-70
2023/07/30 02:29:33;;;;;;;1.50;1.40;;;;;;;18.51;100.00;99613.56;5046830;28;20246;-70
2023/07/30 02:31:59;;;;;;;1.30;1.20;;;;;;;18.37;100.00;99614.88;5032401;28;20233;-70
2023/07/30 02:34:24;;;;;;;2.60;1.53;;;;;;;18.33;100.00;99613.50;5044560;28;20189;-70
2023/07/30 02:36:50;;;;;;;1.53;1.40;;;;;;;18.31;100.00;99620.66;5049706;28;20268;-69
2023/07/30 02:39:15;;;;;;;1.73;1.63;;;;;;;18.28;100.00;99616.53;5048891;28;20242;-70
2023/07/30 02:41:40;;;;;;;2.10;1.60;;;;;;;18.32;100.00;99619.69;5034345;28;20229;-69
2023/07/30 02:44:06;;;;;;;2.00;1.80;;;;;;;18.22;100.00;99627.53;5048215;28;20177;-70
2023/07/30 02:46:31;;;;;;;4.60;1.77;;;;;;;18.23;100.00;99617.00;5052464;28;20223;-69
2023/07/30 02:48:56;;;;;;;1.83;1.50;;;;;;;18.23;100.00;99619.59;5053755;28;20277;-70
2023/07/30 02:51:21;;;;;;;1.70;1.57;;;;;;;18.15;100.00;99618.69;5034575;28;20229;-70
2023/07/30 02:53:47;;;;;;;1.50;1.40;;;;;;;17.89;100.00;99617.50;5029469;28;20185;-70
2023/07/30 02:56:12;;;;;;;1.63;1.53;;;;;;;17.89;100.00;99621.91;5054892;28;20191;-69
2023/07/30 02:58:37;;;;;;;1.80;1.50;;;;;;;17.91;100.00;99623.41;5055147;28;20189;-70
2023/07/30 03:01:09;;;;;;;1.37;1.30;;;;;;;18.05;100.00;99627.34;5036899;28;20240;-70
2023/07/30 03:03:34;;;;;;;1.90;1.43;;;;;;;18.00;100.00;99626.16;5041354;28;20189;-70
2023/07/30 03:06:00;;;;;;;1.87;1.57;;;;;;;17.87;100.00;99629.88;5052727;28;20562;-70
2023/07/30 03:08:25;;;;;;;1.63;1.53;;;;;;;17.84;100.00;99643.16;5053086;28;20702;-70
2023/07/30 03:10:50;;;;;;;2.80;1.70;;;;;;;17.79;100.00;99639.34;5050812;28;20230;-70
2023/07/30 03:13:15;;;;;;;2.77;1.80;;;;;;;17.72;100.00;99639.91;5051980;28;20181;-70
2023/07/30 03:15:41;;;;;;;1.60;1.50;;;;;;;17.63;100.00;99632.94;5045312;28;20244;-70
2023/07/30 03:18:06;;;;;;;3.30;1.77;;;;;;;17.61;100.00;99645.25;5043272;28;20170;-70
2023/07/30 03:20:31;;;;;;;2.80;1.70;;;;;;;17.53;100.00;99640.75;5047984;28;20286;-70
2023/07/30 03:22:57;;;;;;;2.63;1.70;;;;;;;17.56;100.00;99634.47;5058583;28;20193;-70
2023/07/30 03:25:22;;;;;;;1.63;1.53;;;;;;;17.54;100.00;99626.81;5051755;28;20278;-70
2023/07/30 03:27:47;;;;;;;1.57;1.47;;;;;;;17.53;100.00;99622.56;5052869;28;20188;-69
2023/07/30 03:30:12;;;;;;;2.47;1.37;;;;;;;17.58;100.00;99628.16;5025053;28;20189;-71
2023/07/30 03:32:38;;;;;;;1.80;1.70;;;;;;;17.59;100.00;99629.00;5065856;28;20185;-71
2023/07/30 03:35:03;;;;;;;2.20;1.60;;;;;;;17.47;100.00;99643.09;5044209;28;20268;-70
2023/07/30 03:37:29;;;;;;;1.57;1.20;;;;;;;17.32;100.00;99640.94;5054421;28;20189;-70
2023/07/30 03:39:54;;;;;;;2.27;1.70;;;;;;;17.42;100.00;99651.31;5042210;28;20185;-70
2023/07/30 03:42:20;;;;;;;1.80;1.70;;;;;;;17.43;100.00;99642.56;5042229;28;20636;-70
2023/07/30 03:44:45;;;;;;;2.57;1.70;;;;;;;17.34;100.00;99640.78;5041620;28;20173;-70
2023/07/30 03:47:10;;;;;;;1.43;1.33;;;;;;;17.33;100.00;99641.75;5053892;28;20217;-70
2023/07/30 03:49:37;;;;;;;2.80;1.70;;;;;;;17.35;100.00;99632.03;5048485;28;20634;-70
2023/07/30 03:52:02;;;;;;;1.73;1.63;;;;;;;17.15;100.00;99628.63;5057110;28;20225;-70
2023/07/30 03:54:28;;;;;;;2.80;1.60;;;;;;;17.12;100.00;99628.91;5036853;28;20224;-70
2023/07/30 03:56:53;;;;;;;1.60;1.40;;;;;;;17.13;100.00;99633.97;5051974;28;20543;-70
2023/07/30 03:59:18;;;;;;;1.80;1.70;;;;;;;17.07;100.00;99637.94;5053842;28;20246;-70
2023/07/30 04:01:43;;;;;;;4.97;1.80;;;;;;;17.10;100.00;99642.03;5043432;28;20225;-69
2023/07/30 04:04:09;;;;;;;2.20;2.00;;;;;;;17.13;100.00;99648.72;5055065;28;20181;-70
2023/07/30 04:06:34;;;;;;;2.03;1.93;;;;;;;17.15;100.00;99652.03;5037276;28;20551;-70
2023/07/30 04:08:59;;;;;;;1.70;1.60;;;;;;;17.11;100.00;99654.06;5053207;28;20193;-70
2023/07/30 04:11:24;;;;;;;2.27;1.57;;;;;;;17.20;100.00;99653.25;5054074;28;20382;-69
2023/07/30 04:13:49;;;;;;;1.90;1.70;;;;;;;17.32;100.00;99650.53;5049301;28;20638;-70
2023/07/30 04:16:15;;;;;;;1.90;1.80;;;;;;;17.31;100.00;99660.09;5048125;28;20232;-69
2023/07/30 04:18:40;;;;;;;2.53;1.70;;;;;;;17.37;100.00;99658.72;5052108;28;20275;-69
2023/07/30 04:21:05;;;;;;;1.97;1.70;;;;;;;17.34;100.00;99666.78;5051435;28;20568;-69
2023/07/30 04:23:31;;;;;;;4.00;1.97;;;;;;;17.27;100.00;99664.72;5051088;28;20283;-69
2023/07/30 04:25:56;;;;;;;1.73;1.63;;;;;;;17.04;100.00;99663.38;5051184;28;21033;-71
2023/07/30 04:28:21;;;;;;;1.80;1.70;;;;;;;17.02;100.00;99667.91;5045610;28;20259;-69
2023/07/30 04:30:46;;;;;;;1.97;1.50;;;;;;;17.00;100.00;99675.00;5048929;28;20601;-70
2023/07/30 04:33:13;;;;;;;3.27;1.50;;;;;;;16.97;100.00;99675.25;5051458;28;20189;-69
2023/07/30 04:35:39;;;;;;;1.63;1.53;;;;;;;17.16;100.00;99679.66;5051047;28;20189;-70
2023/07/30 04:38:04;;;;;;;1.57;1.47;;;;;;;17.25;100.00;99686.63;5048529;28;20710;-69
2023/07/30 04:40:30;;;;;;;1.63;1.53;;;;;;;17.32;100.00;99685.13;5045416;28;20326;-69
2023/07/30 04:42:55;;;;;;;2.20;2.03;;;;;;;17.29;100.00;99677.63;5064932;28;20548;-70
2023/07/30 04:45:20;;;;;;;2.73;1.97;;;;;;;17.21;100.00;99667.88;5050883;28;20205;-70
2023/07/30 04:47:45;;;;;;;2.37;1.70;;;;;;;17.18;100.00;99665.56;5049594;28;20248;-69
2023/07/30 04:50:11;;;;;;;3.33;1.60;;;;;;;17.15;100.00;99667.63;5022653;28;20648;-69
2023/07/30 04:52:37;;;;;;;1.50;1.40;;;;;;;17.17;100.00;99668.31;5044950;28;20228;-69
2023/07/30 04:55:02;;;;;;;3.00;1.60;;;;;;;17.09;100.00;99662.03;5042545;28;20181;-69
2023/07/30 04:57:27;;;;;;;3.03;1.90;;;;;;;17.14;100.00;99665.97;5052663;28;20207;-68
2023/07/30 04:59:53;;;;;;;2.03;1.83;;;;;;;17.18;100.00;99672.53;5046843;28;20724;-68
2023/07/30 05:02:18;;;;;;;1.60;1.50;;;;;;;17.24;100.00;99666.78;5039991;28;20320;-68
2023/07/30 05:04:43;;;;;;;3.20;1.90;;;;;;;17.32;100.00;99671.31;5042139;28;20215;-68
2023/07/30 05:07:08;;;;;;;3.93;1.90;;;;;;;17.44;100.00;99672.81;5050789;28;20205;-69
2023/07/30 05:09:34;;;;;;;2.00;1.83;;;;;;;17.60;100.00;99677.44;5044412;28;20186;-68
2023/07/30 05:11:59;;;;;;;2.73;1.80;;;;;;;17.71;100.00;99677.28;5024261;28;20522;-68
2023/07/30 05:14:24;;;;;;;1.67;1.57;;;;;;;17.69;100.00;99675.78;5038044;28;20185;-69
2023/07/30 05:16:49;;;;;;;1.90;1.80;;;;;;;17.65;100.00;99672.63;5051123;28;20184;-68
2023/07/30 05:19:15;;;;;;;2.13;1.80;;;;;;;17.68;100.00;99666.34;5050689;28;20238;-69
2023/07/30 05:21:41;;;;;;;4.20;2.23;;;;;;;17.56;100.00;99665.66;5030696;28;20760;-68
2023/07/30 05:24:39;;;;;;;1.60;1.50;;;;;;;17.55;100.00;99659.66;5045971;28;20238;-68
2023/07/30 05:33:47;;;;;;;2.30;1.60;;;;;;;18.43;100.00;99653.34;5046434;28;20199;-69
2023/07/30 05:36:13;;;;;;;1.60;1.50;;;;;;;18.66;100.00;99658.94;5049761;28;20178;-69
2023/07/30 05:38:38;;;;;;;6.97;1.90;;;;;;;18.88;100.00;99656.91;5050619;28;20193;-69
2023/07/30 05:41:03;;;;;;;1.77;1.57;;;;;;;18.93;100.00;99653.84;5049164;28;20220;-69
2023/07/30 05:43:28;;;;;;;2.20;1.70;;;;;;;19.16;100.00;99665.50;5054076;28;20197;-68
2023/07/30 05:45:54;;;;;;;1.40;1.30;;;;;;;19.42;100.00;99659.47;5050992;28;20301;-69
2023/07/30 05:48:19;;;;;;;2.70;1.80;;;;;;;19.66;100.00;99653.63;5050973;28;20197;-69
2023/07/30 05:50:44;;;;;;;2.00;1.77;;;;;;;19.96;100.00;99638.47;5043117;28;20299;-69
2023/07/30 05:53:09;;;;;;;1.50;1.40;;;;;;;20.30;100.00;99644.66;5043576;28;20580;-69
2023/07/30 05:55:35;;;;;;;3.43;1.23;;;;;;;20.67;100.00;99638.22;5047536;28;20188;-70
2023/07/30 05:58:00;;;;;;;3.60;1.37;;;;;;;20.82;100.00;99635.81;5052086;28;20719;-70
2023/07/30 06:00:25;;;;;;;1.53;1.40;;;;;;;20.88;100.00;99639.59;5044230;28;20270;-70
2023/07/30 06:02:51;;;;;;;1.60;1.47;;;;;;;20.92;100.00;99641.69;5060283;28;20186;-60
2023/07/30 06:05:16;;;;;;;2.37;1.50;;;;;;;21.14;100.00;99652.50;5043845;28;20665;-60
2023/07/30 06:07:41;;;;;;;2.63;1.50;;;;;;;21.32;100.00;99660.16;5051197;28;20169;-59
2023/07/30 06:10:07;;;;;;;1.70;1.60;;;;;;;21.61;100.00;99664.13;5042320;28;20295;-61
2023/07/30 06:12:32;;;;;;;2.90;1.50;;;;;;;21.47;100.00;99668.19;5050063;28;20181;-59
2023/07/30 06:14:58;;;;;;;1.50;1.40;;;;;;;21.33;100.00;99668.84;5042903;28;20225;-59
2023/07/30 06:17:23;;;;;;;1.70;1.60;;;;;;;21.16;100.00;99673.25;5050265;28;20190;-59
2023/07/30 06:19:48;;;;;;;1.90;1.50;;;;;;;21.11;100.00;99677.19;5050602;28;20177;-59
2023/07/30 06:22:14;;;;;;;2.80;1.53;;;;;;;20.93;100.00;99687.78;5044588;28;20716;-60
2023/07/30 06:24:39;;;;;;;1.57;1.47;;;;;;;20.92;100.00;99682.72;5043437;28;20181;-60
2023/07/30 06:27:05;;;;;;;1.67;1.40;;;;;;;20.88;100.00;99689.25;5049983;28;20209;-60
2023/07/30 06:29:30;;;;;;;1.50;1.40;;;;;;;20.79;100.00;99688.44;5050015;28;20186;-61
2023/07/30 06:31:55;;;;;;;1.83;1.40;;;;;;;20.69;100.00;99691.16;5051396;28;20224;-60
2023/07/30 06:34:20;;;;;;;1.60;1.50;;;;;;;20.64;100.00;99685.59;5051609;28;20645;-60
2023/07/30 06:36:46;;;;;;;1.63;1.40;;;;;;;20.70;100.00;99689.34;5046515;28;20188;-59
2023/07/30 06:39:11;;;;;;;3.03;1.60;;;;;;;20.54;100.00;99695.34;5051144;28;20609;-59
2023/07/30 06:41:36;;;;;;;1.80;1.50;;;;;;;20.49;100.00;99695.78;5048750;28;20220;-60
2023/07/30 06:44:01;;;;;;;6.40;1.93;;;;;;;20.60;100.00;99690.31;5042927;28;20196;-60
2023/07/30 06:46:27;;;;;;;1.53;1.43;;;;;;;20.85;100.00;99694.78;5042551;28;20205;-60
2023/07/30 06:48:52;;;;;;;1.77;1.67;;;;;;;21.13;100.00;99705.78;5044902;28;20189;-60
2023/07/30 06:51:24;;;;;;;3.40;1.43;;;;;;;21.34;100.00;99707.91;5048257;28;20224;-59
2023/07/30 06:53:49;;;;;;;2.07;1.87;;;;;;;21.21;100.00;99712.81;5036299;28;20178;-60
2023/07/30 06:56:14;;;;;;;3.50;1.93;;;;;;;21.07;100.00;99722.94;5048850;28;20271;-59
2023/07/30 06:58:40;;;;;;;2.80;1.83;;;;;;;21.19;100.00;99720.03;5039224;28;20712;-59
2023/07/30 07:01:05;;;;;;;1.50;1.40;;;;;;;21.04;100.00;99725.88;5021369;28;20225;-59
2023/07/30 07:03:30;;;;;;;1.67;1.57;;;;;;;21.00;100.00;99735.03;5039127;28;20243;-59
2023/07/30 07:05:56;;;;;;;2.57;1.57;;;;;;;21.02;100.00;99724.41;5041473;28;20660;-60
2023/07/30 07:08:22;;;;;;;1.93;1.77;;;;;;;20.68;100.00;99722.63;5039270;28;20190;-71
2023/07/30 07:10:47;;;;;;;2.57;1.70;;;;;;;20.33;100.00;99730.53;5046913;28;20322;-70
2023/07/30 07:13:15;;;;;;;2.40;2.00;;;;;;;20.25;100.00;99731.28;5040789;28;20193;-70
2023/07/30 07:15:41;;;;;;;2.90;2.07;;;;;;;20.07;100.00;99727.94;5037496;28;20247;-69
2023/07/30 07:18:06;;;;;;;4.60;1.93;;;;;;;19.74;100.00;99727.72;5037889;28;20177;-69
2023/07/30 07:20:31;;;;;;;2.37;2.17;;;;;;;19.68;100.00;99721.28;5031571;28;20232;-68
2023/07/30 07:22:57;;;;;;;3.03;2.10;;;;;;;19.58;100.00;99721.38;5048238;28;20213;-69
2023/07/30 07:25:22;;;;;;;4.93;2.03;;;;;;;19.61;100.00;99720.25;5049076;28;20656;-68
2023/07/30 07:27:47;;;;;;;2.43;2.10;;;;;;;19.99;100.00;99721.72;5049304;28;20201;-68
2023/07/30 07:30:13;;;;;;;2.30;1.77;;;;;;;20.24;100.00;99718.41;5006756;28;20194;-69
2023/07/30 07:32:38;;;;;;;3.60;2.30;;;;;;;20.34;100.00;99723.50;5057892;28;20251;-69
2023/07/30 07:35:05;;;;;;;3.43;1.87;;;;;;;20.36;100.00;99717.16;5052475;28;20185;-69
2023/07/30 07:37:32;;;;;;;3.37;1.67;;;;;;;20.54;100.00;99711.84;5053901;28;20204;-70
2023/07/30 07:39:57;;;;;;;2.20;1.87;;;;;;;20.78;100.00;99705.88;5039712;28;20193;-70
2023/07/30 07:42:22;;;;;;;2.23;1.90;;;;;;;21.27;100.00;99699.09;5037866;28;20230;-70
2023/07/30 07:44:47;;;;;;;3.23;1.87;;;;;;;21.66;100.00;99706.31;5052431;28;20180;-70
2023/07/30 07:47:13;;;;;;;1.77;1.67;;;;;;;21.53;100.00;99708.56;5052814;28;20315;-70
2023/07/30 07:49:38;;;;;;;2.93;2.00;;;;;;;22.56;100.00;99700.00;5049071;28;20338;-71
2023/07/30 07:52:04;;;;;;;2.13;1.80;;;;;;;23.19;100.00;99702.56;5046410;28;20759;-71
2023/07/30 07:54:29;;;;;;;2.13;1.80;;;;;;;23.16;100.00;99700.28;5053862;28;20636;-71
2023/07/30 07:56:54;;;;;;;2.43;1.57;;;;;;;23.90;100.00;99705.88;5054028;28;20190;-71
2023/07/30 07:59:20;;;;;;;1.83;1.70;;;;;;;24.49;100.00;99705.06;5053895;28;20300;-72
2023/07/30 08:01:45;;;;;;;1.60;1.50;;;;;;;24.71;100.00;99705.09;5022714;28;20298;-71
2023/07/30 08:04:10;;;;;;;1.80;1.40;;;;;;;25.78;100.00;99698.94;5052675;28;20197;-71
2023/07/30 08:06:36;;;;;;;4.90;1.70;;;;;;;26.60;100.00;99700.97;5052856;28;20736;-71
2023/07/30 08:09:01;;;;;;;2.58;1.88;;;;;;;27.93;100.00;99698.59;5053597;28;20198;-70
2023/07/30 08:11:27;;;;;;;2.42;1.80;;;;;;;27.39;100.00;99696.84;5038121;28;20248;-70
2023/07/30 08:13:52;;;;;;;1.58;1.30;;;;;;;27.58;99.27;99704.16;5042076;28;20205;-70
2023/07/30 08:16:17;;;;;;;2.10;1.88;;;;;;;25.97;100.00;99696.63;5051845;28;20348;-70
2023/07/30 08:18:43;;;;;;;1.60;1.50;;;;;;;26.32;100.00;99691.38;5053489;28;20182;-71
2023/07/30 08:21:08;;;;;;;1.85;1.75;;;;;;;26.41;100.00;99699.91;5045211;28;20319;-70
2023/07/30 08:23:34;;;;;;;2.30;1.40;;;;;;;25.95;100.00;99696.03;5050089;28;20192;-70
2023/07/30 08:25:59;;;;;;;2.75;1.98;;;;;;;25.32;100.00;99685.44;5051597;28;20568;-70
2023/07/30 08:28:24;;;;;;;1.77;1.65;;;;;;;24.62;100.00;99686.81;5052137;28;20189;-70
2023/07/30 08:30:50;;;;;;;3.88;1.70;;;;;;;24.80;100.00;99688.22;5049459;28;20714;-70
2023/07/30 08:33:15;;;;;;;3.15;1.92;;;;;;;25.17;100.00;99681.06;5046174;28;20605;-70
2023/07/30 08:35:40;;;;;;;2.95;2.03;;;;;;;25.10;100.00;99677.56;5045531;28;20695;-70
2023/07/30 08:38:06;;;;;;;2.60;2.25;;;;;;;24.80;100.00;99678.50;5052030;28;20189;-70
2023/07/30 08:40:31;;;;;;;2.97;2.17;;;;;;;25.09;100.00;99670.66;5046943;28;20229;-70
2023/07/30 08:42:57;;;;;;;2.25;2.05;;;;;;;23.31;100.00;99660.19;5060132;28;20495;-70
2023/07/30 08:45:23;;;;;;;3.88;2.40;;;;;;;22.99;100.00;99664.66;5035601;28;20758;-70
2023/07/30 08:47:48;;;;;;;3.60;2.60;;;;;;;23.12;100.00;99662.28;5052560;28;20181;-70
2023/07/30 08:50:14;;;;;;;3.05;2.50;;;;;;;22.68;100.00;99653.22;5040534;28;20189;-70
2023/07/30 08:52:39;;;;;;;2.83;2.10;;;;;;;22.80;100.00;99658.91;5063934;28;20319;-70
2023/07/30 08:55:05;;;;;;;2.90;2.67;;;;;;;22.54;100.00;99667.09;5041421;28;20650;-70
2023/07/30 08:57:32;;;;;;;2.30;2.20;;;;;;;22.24;100.00;99686.03;5052982;28;20363;-70
2023/07/30 09:00:04;;;;;;;6.03;2.90;;;;;;;21.17;100.00;99672.28;5052685;28;20647;-68
2023/07/30 09:02:46;;;;;;;3.47;2.27;;;;;;;19.81;100.00;99706.06;5041137;28;20254;-70
2023/07/30 09:05:11;;;;;;;3.00;1.63;;;;;;;19.33;100.00;99700.31;5043805;28;20213;-70
2023/07/30 09:07:37;;;;;;;1.57;1.47;;;;;;;19.12;100.00;99705.84;5044687;28;20182;-71
2023/07/30 09:10:02;;;;;;;1.77;1.40;;;;;;;19.03;100.00;99711.97;5043935;28;20213;-69
2023/07/30 09:12:32;;;;;;;2.17;1.30;;;;;;;19.16;100.00;99722.00;5036829;28;20206;-71
2023/07/30 09:14:57;;;;;;;1.80;0.90;;;;;;;19.18;100.00;99720.88;5045293;28;20225;-71
2023/07/30 09:17:23;;;;;;;0.90;0.90;;;;;;;19.27;100.00;99729.59;5031629;28;20190;-70
2023/07/30 09:19:50;;;;;;;1.37;1.00;;;;;;;19.48;100.00;99739.72;5046702;28;20905;-71
2023/07/30 09:22:30;;;;;;;0.60;0.60;;;;;;;19.43;100.00;99756.81;5050850;28;20255;-72
2023/07/30 09:24:57;;;;;;;0.70;0.53;;;;;;;19.76;100.00;99759.66;5036062;28;20574;-71
2023/07/30 09:27:26;;;;;;;1.47;0.70;;;;;;;19.88;100.00;99755.88;5046514;28;20201;-71
2023/07/30 09:29:56;;;;;;;0.67;0.50;;;;;;;19.94;100.00;99752.66;5042755;28;20276;-71
2023/07/30 09:32:29;;;;;;;0.63;0.63;;;;;;;20.40;100.00;99762.06;5027190;28;20486;-71
2023/07/30 09:34:55;;;;;;;0.57;0.57;;;;;;;21.24;100.00;99757.78;5048233;28;20200;-70
2023/07/30 09:37:20;;;;;;;0.83;0.60;;;;;;;21.76;100.00;99761.09;5049834;28;20644;-70
2023/07/30 09:39:48;;;;;;;0.50;0.50;;;;;;;22.35;100.00;99765.22;5040158;28;20181;-71
2023/07/30 09:42:13;;;;;;;1.47;0.60;;;;;;;22.85;100.00;99774.56;5034687;28;20236;-71
2023/07/30 09:44:39;;;;;;;2.63;0.90;;;;;;;23.54;100.00;99767.72;5037574;28;20185;-71
2023/07/30 09:47:06;;;;;;;0.70;0.70;;;;;;;23.94;100.00;99791.22;5049846;28;20213;-69
2023/07/30 09:49:31;;;;;;;0.70;0.57;;;;;;;23.46;100.00;99796.69;5050754;28;20179;-68
2023/07/30 09:51:57;;;;;;;1.42;0.52;;;;;;;23.57;100.00;99798.06;5041565;28;20319;-68
2023/07/30 09:54:23;;;;;;;1.60;0.70;;;;;;;23.96;100.00;99803.19;5051245;28;20181;-68
2023/07/30 09:56:48;;;;;;;0.70;0.60;;;;;;;24.01;100.00;99814.00;5049995;28;20231;-68
2023/07/30 09:59:13;;;;;;;2.30;0.90;;;;;;;23.72;100.00;99817.31;5050342;28;20192;-68
2023/07/30 10:01:45;;;;;;;1.75;1.00;;;;;;;22.48;100.00;99823.19;5042819;28;20270;-69
2023/07/30 10:04:11;;;;;;;3.10;1.30;;;;;;;22.53;100.00;99820.09;5037102;28;20203;-69
2023/07/30 10:06:42;;;;;;;1.53;0.83;;;;;;;23.41;99.11;99820.81;5050365;28;20613;-71
2023/07/30 10:09:09;;;;;;;1.80;0.90;;;;;;;24.15;97.14;99822.88;5051480;28;20264;-69
2023/07/30 10:11:36;;;;;;;2.15;0.90;;;;;;;26.62;81.29;99833.50;5053495;28;20271;-69
2023/07/30 10:14:03;;;;;;;2.25;1.17;;;;;;;27.93;69.48;99826.28;5038638;28;20264;-69
2023/07/30 10:16:29;;;;;;;2.15;1.00;;;;;;;27.32;72.28;99833.31;5035185;28;20232;-69
2023/07/30 10:18:58;;;;;;;1.25;0.93;;;;;;;27.88;70.29;99836.66;5043321;28;20186;-70
2023/07/30 10:21:26;;;;;;;2.17;0.85;;;;;;;27.26;67.97;99836.75;5040272;28;20283;-70
2023/07/30 10:23:59;;;;;;;1.45;0.90;;;;;;;25.94;75.67;99841.94;5055872;28;20667;-70
2023/07/30 10:26:30;;;;;;;1.83;1.08;;;;;;;24.98;84.15;99851.72;5043698;28;20554;-70
2023/07/30 10:29:19;;;;;;;3.85;1.52;;;;;;;23.07;94.99;99850.00;5049218;28;20247;-69
2023/07/30 10:31:55;;;;;;;2.13;1.10;;;;;;;23.94;93.21;99859.50;5039712;28;20302;-70
2023/07/30 10:34:21;;;;;;;3.70;1.23;;;;;;;25.85;78.95;99866.78;5047183;28;20216;-69
2023/07/30 10:36:49;;;;;;;3.80;1.48;;;;;;;25.42;79.36;99865.78;5047608;28;20197;-70
2023/07/30 10:39:21;;;;;;;2.70;1.30;;;;;;;25.21;82.06;99865.75;5035566;28;20716;-70
2023/07/30 10:41:51;;;;;;;3.75;1.60;;;;;;;25.01;88.80;99868.94;5054442;28;20691;-69
2023/07/30 10:44:27;;;;;;;3.78;1.25;;;;;;;24.31;87.58;99868.38;5044249;28;20193;-69
2023/07/30 10:46:56;;;;;;;4.75;1.30;;;;;;;24.95;83.03;99864.44;5051147;28;20208;-69
2023/07/30 10:49:22;;;;;;;3.97;1.60;;;;;;;25.74;82.91;99870.78;5049712;28;20559;-69
2023/07/30 10:51:48;;;;;;;2.72;1.33;;;;;;;24.89;81.94;99862.53;5035588;28;20304;-69
2023/07/30 10:54:15;;;;;;;4.07;1.45;;;;;;;24.60;83.78;99869.41;5034106;28;20247;-69
2023/07/30 10:56:41;;;;;;;2.00;1.15;;;;;;;24.01;86.12;99866.53;5040122;28;20178;-69
2023/07/30 10:59:07;;;;;;;2.95;1.13;;;;;;;24.21;89.99;99860.75;5041379;28;20548;-69
2023/07/30 11:01:36;;;;;;;3.83;1.35;;;;;;;23.86;85.68;99863.00;5021148;28;20225;-70
2023/07/30 11:04:06;;;;;;;2.78;1.35;;;;;;;24.17;89.25;99862.09;5041330;28;20269;-70
2023/07/30 11:06:31;;;;;;;2.65;1.30;;;;;;;24.18;88.89;99869.81;5042781;28;20227;-69
2023/07/30 11:08:56;;;;;;;2.42;1.35;;;;;;;24.31;89.47;99869.22;5053446;28;20594;-70
2023/07/30 11:11:24;;;;;;;4.22;1.63;;;;;;;23.93;87.42;99878.91;5052723;28;20228;-70
2023/07/30 11:13:49;;;;;;;3.63;1.00;;;;;;;23.32;85.40;99885.66;5044345;28;20269;-69
2023/07/30 11:16:16;;;;;;;3.50;1.27;;;;;;;22.78;80.11;99893.41;5040542;28;20323;-69
2023/07/30 11:18:43;;;;;;;3.40;1.33;;;;;;;22.46;81.00;99888.06;5055004;28;20240;-69
2023/07/30 11:21:13;;;;;;;3.80;1.27;;;;;;;22.46;82.98;99892.50;5041842;28;20224;-69
2023/07/30 11:23:41;;;;;;;3.57;1.50;;;;;;;22.28;85.21;99896.09;5042184;28;20641;-69
2023/07/30 11:26:08;;;;;;;3.67;1.50;;;;;;;21.86;86.76;99910.16;5051900;28;20197;-71
2023/07/30 11:28:38;;;;;;;3.53;1.30;;;;;;;22.15;86.64;99906.25;5038652;28;20590;-69